createdAt,value
2023-04-20T00:01:49.375Z,36.47
2023-04-20T00:04:18.347Z,36.45
2023-04-20T00:06:47.227Z,39.13
2023-04-20T00:09:16.406Z,35.17
2023-04-20T00:11:44.942Z,37.28
2023-04-20T00:14:13.178Z,42.13
2023-04-20T00:16:41.482Z,44.28
2023-04-20T00:19:11.148Z,41.65
2023-04-20T00:21:39.499Z,37.10
2023-04-20T00:24:08.829Z,34.22
2023-04-20T00:26:37.227Z,35.42
2023-04-20T00:29:05.636Z,36.67
2023-04-20T00:31:34.034Z,41.42
2023-04-20T00:34:02.832Z,39.72
2023-04-20T00:36:32.557Z,39.17
2023-04-20T00:39:01.207Z,42.97
2023-04-20T00:41:30.472Z,36.72
2023-04-20T00:44:01.139Z,38.17
2023-04-20T00:46:29.513Z,41.70
2023-04-20T00:48:59.081Z,43.15
2023-04-20T00:51:29.154Z,41.20
2023-04-20T00:54:01.292Z,40.60
2023-04-20T00:56:29.650Z,41.00
2023-04-20T00:58:57.915Z,40.55
2023-04-20T01:01:27.222Z,38.17
2023-04-20T01:03:55.809Z,37.83
2023-04-20T01:06:24.140Z,38.33
2023-04-20T01:08:55.286Z,34.10
2023-04-20T01:11:24.873Z,34.20
2023-04-20T01:13:53.282Z,31.17
2023-04-20T01:16:22.562Z,36.15
2023-04-20T01:18:52.670Z,28.67
2023-04-20T01:21:23.045Z,31.83
2023-04-20T01:23:52.750Z,34.35
2023-04-20T01:26:23.387Z,33.45
2023-04-20T01:28:52.944Z,31.02
2023-04-20T01:31:22.002Z,36.55
2023-04-20T01:33:52.326Z,31.50
2023-04-20T01:36:22.534Z,30.60
2023-04-20T01:38:52.437Z,31.05
2023-04-20T01:41:21.109Z,28.83
2023-04-20T01:43:50.195Z,34.58
2023-04-20T01:46:18.763Z,33.15
2023-04-20T01:48:48.601Z,28.13
2023-04-20T01:51:16.903Z,30.20
2023-04-20T01:53:45.104Z,29.58
2023-04-20T01:56:14.771Z,27.63
2023-04-20T01:58:44.074Z,30.58
2023-04-20T02:01:12.364Z,32.70
2023-04-20T02:03:41.326Z,29.33
2023-04-20T02:06:09.835Z,32.08
2023-04-20T02:08:38.314Z,25.63
2023-04-20T02:11:09.400Z,29.58
2023-04-20T02:13:39.112Z,27.08
2023-04-20T02:16:08.297Z,30.70
2023-04-20T02:18:37.430Z,26.50
2023-04-20T02:21:08.055Z,25.95
2023-04-20T02:23:36.328Z,26.63
2023-04-20T02:26:04.669Z,33.60
2023-04-20T02:28:33.317Z,23.30
2023-04-20T02:31:03.003Z,28.15
2023-04-20T02:33:31.324Z,31.23
2023-04-20T02:35:59.598Z,24.70
2023-04-20T02:38:27.946Z,33.42
2023-04-20T02:40:56.189Z,30.23
2023-04-20T02:43:24.536Z,26.50
2023-04-20T02:45:53.006Z,28.63
2023-04-20T02:48:24.885Z,36.17
2023-04-20T02:50:56.681Z,29.60
2023-04-20T02:53:27.178Z,26.13
2023-04-20T02:56:13.889Z,25.17
2023-04-20T02:58:55.451Z,29.67
2023-04-20T03:01:31.269Z,28.10
2023-04-20T03:04:07.273Z,26.88
2023-04-20T03:06:42.757Z,29.95
2023-04-20T03:09:16.693Z,29.25
2023-04-20T03:12:10.268Z,26.17
2023-04-20T03:14:56.712Z,29.20
2023-04-20T03:17:50.923Z,27.58
2023-04-20T03:20:21.051Z,23.90
2023-04-20T03:22:49.480Z,28.95
2023-04-20T03:25:18.862Z,27.77
2023-04-20T03:27:53.807Z,28.48
2023-04-20T03:30:23.048Z,30.42
2023-04-20T03:32:57.320Z,26.60
2023-04-20T03:35:27.161Z,24.33
2023-04-20T03:37:55.593Z,29.88
2023-04-20T03:40:24.200Z,26.13
2023-04-20T03:42:52.591Z,27.60
2023-04-20T03:45:20.908Z,25.30
2023-04-20T03:47:50.848Z,27.05
2023-04-20T03:50:19.259Z,27.33
2023-04-20T03:52:48.994Z,27.63
2023-04-20T03:55:17.671Z,31.83
2023-04-20T03:57:51.881Z,28.75
2023-04-20T04:00:20.334Z,30.73
2023-04-20T04:02:48.809Z,26.63
2023-04-20T04:05:26.708Z,26.90
2023-04-20T04:07:56.834Z,33.65
2023-04-20T04:10:25.393Z,29.92
2023-04-20T04:12:53.847Z,29.08
2023-04-20T04:15:22.419Z,35.05
2023-04-20T04:17:59.081Z,29.77
2023-04-20T04:20:27.566Z,34.58
2023-04-20T04:22:57.494Z,33.00
2023-04-20T04:25:39.762Z,30.98
2023-04-20T04:28:08.698Z,32.13
2023-04-20T04:30:42.177Z,29.70
2023-04-20T04:33:14.715Z,30.88
2023-04-20T04:35:45.900Z,29.63
2023-04-20T04:38:16.647Z,25.20
2023-04-20T04:40:48.712Z,25.92
2023-04-20T04:43:19.528Z,28.85
2023-04-20T04:45:58.582Z,31.60
2023-04-20T04:48:27.930Z,26.75
2023-04-20T04:50:56.173Z,27.52
2023-04-20T04:53:26.086Z,24.05
2023-04-20T04:55:54.382Z,27.90
2023-04-20T04:58:22.618Z,29.17
2023-04-20T05:00:51.127Z,27.38
2023-04-20T05:03:19.476Z,28.08
2023-04-20T05:05:47.941Z,28.88
2023-04-20T05:08:16.307Z,29.58
2023-04-20T05:10:46.077Z,26.05
2023-04-20T05:13:14.441Z,25.33
2023-04-20T05:15:43.983Z,31.02
2023-04-20T05:18:12.373Z,29.13
2023-04-20T05:20:40.676Z,24.30
2023-04-20T05:23:09.119Z,28.60
2023-04-20T05:25:37.456Z,35.60
2023-04-20T05:28:07.296Z,23.20
2023-04-20T05:30:35.582Z,24.75
2023-04-20T05:33:03.939Z,29.95
2023-04-20T05:35:32.351Z,23.80
2023-04-20T05:38:02.674Z,23.08
2023-04-20T05:40:31.034Z,23.27
2023-04-20T05:42:59.388Z,21.80
2023-04-20T05:45:29.101Z,18.20
2023-04-20T05:47:58.520Z,18.23
2023-04-20T05:50:27.919Z,19.33
2023-04-20T05:52:56.161Z,21.08
2023-04-20T05:55:24.658Z,21.00
2023-04-20T05:57:53.480Z,21.70
2023-04-20T06:00:25.781Z,18.27
2023-04-20T06:02:56.166Z,21.10
2023-04-20T06:05:24.615Z,21.63
2023-04-20T06:07:53.212Z,20.63
2023-04-20T06:10:21.781Z,16.30
2023-04-20T06:12:49.988Z,21.58
2023-04-20T06:15:18.749Z,16.65
2023-04-20T06:17:47.121Z,16.77
2023-04-20T06:20:16.958Z,19.08
2023-04-20T06:22:45.899Z,21.48
2023-04-20T06:25:15.557Z,20.50
2023-04-20T06:27:44.151Z,19.38
2023-04-20T06:30:13.431Z,15.82
2023-04-20T06:32:41.758Z,19.45
2023-04-20T06:35:10.716Z,15.77
2023-04-20T06:37:40.982Z,16.85
2023-04-20T06:40:10.328Z,17.85
2023-04-20T06:42:38.780Z,17.50
2023-04-20T06:45:08.528Z,13.13
2023-04-20T06:47:37.013Z,15.02
2023-04-20T06:50:09.880Z,20.27
2023-04-20T06:52:41.563Z,14.05
2023-04-20T06:55:11.015Z,12.73
2023-04-20T06:57:39.970Z,20.58
2023-04-20T07:00:10.098Z,13.38
2023-04-20T07:02:46.041Z,16.13
2023-04-20T07:05:14.961Z,13.07
2023-04-20T07:07:48.555Z,14.40
2023-04-20T07:10:18.280Z,19.70
2023-04-20T07:12:46.776Z,14.15
2023-04-20T07:15:15.381Z,12.82
2023-04-20T07:17:43.716Z,11.25
2023-04-20T07:20:13.034Z,15.07
2023-04-20T07:22:41.780Z,12.38
2023-04-20T07:25:12.207Z,11.05
2023-04-20T07:27:41.863Z,16.25
2023-04-20T07:30:12.421Z,9.52
2023-04-20T07:32:42.747Z,14.68
2023-04-20T07:35:12.375Z,16.05
2023-04-20T07:37:40.963Z,14.63
2023-04-20T07:40:12.400Z,11.02
2023-04-20T07:42:41.279Z,13.85
2023-04-20T07:45:12.126Z,15.85
2023-04-20T07:47:41.195Z,13.48
2023-04-20T07:50:12.818Z,9.00
2023-04-20T07:52:41.140Z,13.13
2023-04-20T07:55:14.237Z,11.10
2023-04-20T07:57:42.910Z,15.57
2023-04-20T08:00:13.084Z,12.63
2023-04-20T08:02:41.969Z,10.27
2023-04-20T08:05:11.449Z,16.60
2023-04-20T08:07:40.856Z,12.95
2023-04-20T08:10:11.681Z,17.27
2023-04-20T08:12:40.922Z,13.57
2023-04-20T08:15:11.077Z,16.60
2023-04-20T08:17:40.014Z,13.00
2023-04-20T08:20:11.689Z,14.57
2023-04-20T08:22:40.823Z,14.32
2023-04-20T08:25:10.170Z,14.57
2023-04-20T08:27:44.700Z,12.55
2023-04-20T08:30:13.739Z,13.10
2023-04-20T08:32:42.472Z,13.98
2023-04-20T08:35:11.004Z,29.42
2023-04-20T08:37:39.688Z,13.98
2023-04-20T08:40:09.709Z,16.25
2023-04-20T08:42:39.746Z,15.38
2023-04-20T08:45:09.195Z,15.65
2023-04-20T08:47:38.671Z,13.68
2023-04-20T08:50:09.833Z,13.68
2023-04-20T08:52:39.856Z,10.02
2023-04-20T08:55:11.736Z,13.10
2023-04-20T08:57:44.587Z,12.15
2023-04-20T09:00:18.816Z,15.68
2023-04-20T09:02:51.986Z,15.10
2023-04-20T09:05:31.832Z,16.58
2023-04-20T09:08:05.372Z,12.77
2023-04-20T09:10:42.569Z,14.20
2023-04-20T09:13:22.806Z,14.38
2023-04-20T09:15:57.089Z,20.40
2023-04-20T09:18:28.549Z,13.82
2023-04-20T09:20:57.426Z,12.43
2023-04-20T09:23:25.746Z,33.50
2023-04-20T09:25:54.179Z,11.88
2023-04-20T09:28:24.118Z,6.40
2023-04-20T09:30:52.576Z,8.40
2023-04-20T09:33:21.097Z,15.10
2023-04-20T09:35:50.131Z,14.43
2023-04-20T09:38:19.042Z,8.63
2023-04-20T09:41:08.324Z,17.42
2023-04-20T09:43:38.398Z,16.08
2023-04-20T09:46:08.946Z,11.48
2023-04-20T09:48:42.915Z,11.18
2023-04-20T09:51:16.733Z,8.10
2023-04-20T09:53:54.774Z,16.63
2023-04-20T09:56:34.470Z,8.23
2023-04-20T09:59:23.079Z,7.97
2023-04-20T10:01:54.751Z,17.60
2023-04-20T10:04:23.732Z,12.13
2023-04-20T10:07:03.383Z,12.68
2023-04-20T10:09:37.926Z,12.50
2023-04-20T10:12:12.595Z,17.92
2023-04-20T10:15:04.935Z,8.65
2023-04-20T10:17:59.825Z,7.60
2023-04-20T10:20:37.725Z,15.35
2023-04-20T10:23:20.082Z,6.53
2023-04-20T10:26:10.502Z,12.43
2023-04-20T10:28:55.577Z,10.70
2023-04-20T10:31:36.145Z,11.55
2023-04-20T10:34:10.568Z,10.23
2023-04-20T10:36:47.823Z,8.65
2023-04-20T10:39:32.945Z,7.03
2023-04-20T10:42:02.080Z,8.68
2023-04-20T10:44:38.125Z,6.15
2023-04-20T10:47:07.954Z,7.57
2023-04-20T10:49:36.799Z,7.30
2023-04-20T10:52:14.420Z,10.27
2023-04-20T10:54:48.317Z,8.48
2023-04-20T10:57:17.891Z,11.93
2023-04-20T10:59:47.000Z,10.32
2023-04-20T11:02:17.098Z,9.25
2023-04-20T11:04:47.840Z,5.22
2023-04-20T11:07:20.288Z,5.80
2023-04-20T11:09:55.575Z,8.45
2023-04-20T11:12:24.097Z,10.57
2023-04-20T11:14:54.236Z,6.20
2023-04-20T11:18:05.096Z,7.85
2023-04-20T11:20:35.424Z,6.25
2023-04-20T11:23:09.315Z,10.77
2023-04-20T11:25:43.015Z,8.32
2023-04-20T11:28:13.010Z,5.93
2023-04-20T11:30:42.218Z,7.60
2023-04-20T11:33:20.248Z,8.48
2023-04-20T11:36:21.595Z,11.70
2023-04-20T11:38:52.455Z,6.40
2023-04-20T11:41:42.792Z,13.65
2023-04-20T11:44:12.092Z,7.65
2023-04-20T11:46:40.815Z,9.20
2023-04-20T11:49:09.131Z,9.10
2023-04-20T11:51:39.045Z,6.15
2023-04-20T11:54:07.546Z,9.88
2023-04-20T11:56:46.262Z,6.55
2023-04-20T11:59:26.631Z,11.55
2023-04-20T12:01:55.122Z,7.10
2023-04-20T12:04:35.700Z,7.65
2023-04-20T12:07:05.615Z,8.02
2023-04-20T12:09:43.132Z,4.47
2023-04-20T12:12:11.929Z,6.40
2023-04-20T12:14:40.385Z,9.45
2023-04-20T12:17:23.079Z,6.72
2023-04-20T12:19:52.610Z,5.90
2023-04-20T12:22:27.710Z,6.07
2023-04-20T12:25:04.414Z,6.03
2023-04-20T12:27:35.183Z,6.03
2023-04-20T12:30:07.040Z,6.28
2023-04-20T12:32:38.090Z,7.07
2023-04-20T12:35:08.531Z,8.55
2023-04-20T12:37:56.104Z,5.75
2023-04-20T12:40:25.264Z,9.88
2023-04-20T12:43:33.174Z,6.28
2023-04-20T12:46:01.652Z,12.10
2023-04-20T12:48:44.183Z,5.03
2023-04-20T12:51:16.326Z,4.97
2023-04-20T12:54:17.713Z,6.32
2023-04-20T12:56:57.168Z,8.13
2023-04-20T12:59:31.385Z,3.80
2023-04-20T13:01:59.962Z,7.63
2023-04-20T13:04:31.613Z,5.07
2023-04-20T13:07:06.362Z,8.48
2023-04-20T13:13:18.914Z,11.43
2023-04-20T13:15:56.610Z,6.30
2023-04-20T13:18:29.440Z,9.05
2023-04-20T13:20:59.269Z,6.80
2023-04-20T13:23:31.462Z,11.93
2023-04-20T13:26:04.508Z,7.78
2023-04-20T13:28:50.357Z,7.68
2023-04-20T13:31:18.908Z,9.80
2023-04-20T13:33:47.601Z,9.43
2023-04-20T13:36:16.169Z,5.25
2023-04-20T13:38:45.042Z,11.55
2023-04-20T13:41:17.318Z,6.50
2023-04-20T13:43:54.714Z,8.20
2023-04-20T13:46:28.521Z,7.63
2023-04-20T13:48:57.075Z,6.50
2023-04-20T13:51:27.100Z,7.05
2023-04-20T13:53:58.484Z,9.02
2023-04-20T13:56:29.961Z,9.70
2023-04-20T13:58:59.865Z,6.95
2023-04-20T14:01:28.295Z,8.77
2023-04-20T14:03:56.923Z,5.25
2023-04-20T14:06:25.645Z,6.50
2023-04-20T14:08:54.206Z,8.05
2023-04-20T14:11:26.981Z,9.30
2023-04-20T14:13:55.417Z,5.68
2023-04-20T14:16:26.850Z,11.90
2023-04-20T14:19:04.548Z,15.60
2023-04-20T14:21:33.925Z,9.95
2023-04-20T14:24:02.833Z,9.52
2023-04-20T14:26:31.121Z,10.20
2023-04-20T14:28:59.639Z,6.53
2023-04-20T14:31:35.404Z,7.50
2023-04-20T14:34:04.115Z,6.80
2023-04-20T14:36:32.598Z,10.18
2023-04-20T14:39:01.678Z,6.90
2023-04-20T14:41:32.305Z,7.63
2023-04-20T14:44:01.846Z,7.63
2023-04-20T14:46:31.649Z,7.70
2023-04-20T14:48:59.978Z,5.18
2023-04-20T14:51:33.521Z,8.77
2023-04-20T14:54:01.881Z,9.02
2023-04-20T14:56:30.244Z,7.20
2023-04-20T14:59:01.596Z,18.48
2023-04-20T15:01:31.433Z,5.88
2023-04-20T15:03:59.893Z,9.13
2023-04-20T15:06:28.439Z,7.18
2023-04-20T15:08:56.924Z,6.18
2023-04-20T15:11:25.676Z,7.20
2023-04-20T15:13:54.390Z,11.23
2023-04-20T15:16:55.474Z,13.82
2023-04-20T15:19:46.176Z,8.68
2023-04-20T15:22:14.832Z,12.88
2023-04-20T15:24:43.273Z,9.10
2023-04-20T15:27:11.755Z,7.10
2023-04-20T15:29:40.358Z,8.45
2023-04-20T15:32:10.568Z,9.80
2023-04-20T15:34:39.336Z,12.93
2023-04-20T15:37:07.699Z,8.10
2023-04-20T15:39:36.053Z,7.70
2023-04-20T15:42:04.490Z,8.27
2023-04-20T15:44:32.785Z,6.28
2023-04-20T15:47:02.428Z,6.38
2023-04-20T15:49:37.344Z,8.80
2023-04-20T15:52:09.033Z,12.93
2023-04-20T15:54:41.316Z,13.23
2023-04-20T15:57:09.708Z,6.97
2023-04-20T15:59:38.052Z,14.45
2023-04-20T16:02:06.921Z,8.48
2023-04-20T16:04:37.048Z,7.68
2023-04-20T16:07:05.535Z,11.00
2023-04-20T16:09:33.948Z,13.80
2023-04-20T16:12:05.593Z,9.40
2023-04-20T16:14:34.190Z,8.43
2023-04-20T16:17:03.456Z,8.85
2023-04-20T16:19:32.382Z,9.82
2023-04-20T16:22:02.187Z,8.73
2023-04-20T16:24:30.522Z,9.00
2023-04-20T16:27:02.835Z,15.02
2023-04-20T16:29:33.869Z,11.23
2023-04-20T16:32:04.710Z,10.15
2023-04-20T16:34:33.050Z,10.23
2023-04-20T16:37:02.802Z,9.43
2023-04-20T16:39:31.103Z,8.13
2023-04-20T16:41:59.469Z,10.73
2023-04-20T16:44:27.798Z,9.88
2023-04-20T16:46:56.360Z,8.23
2023-04-20T16:49:31.039Z,9.05
2023-04-20T16:51:59.502Z,14.00
2023-04-20T16:54:29.226Z,8.65
2023-04-20T16:56:57.536Z,9.23
2023-04-20T16:59:32.213Z,13.30
2023-04-20T17:02:00.814Z,11.35
2023-04-20T17:04:29.642Z,9.20
2023-04-20T17:06:57.976Z,9.68
2023-04-20T17:09:26.221Z,10.93
2023-04-20T17:11:56.557Z,9.68
2023-04-20T17:14:24.848Z,12.95
2023-04-20T17:16:54.271Z,12.27
2023-04-20T17:19:23.481Z,10.57
2023-04-20T17:21:51.740Z,9.55
2023-04-20T17:24:20.302Z,11.15
2023-04-20T17:26:48.811Z,11.50
2023-04-20T17:29:18.772Z,9.75
2023-04-20T17:31:47.080Z,8.25
2023-04-20T17:34:15.451Z,9.48
2023-04-20T17:36:43.767Z,9.93
2023-04-20T17:39:12.124Z,11.75
2023-04-20T17:41:40.389Z,22.05
2023-04-20T17:44:10.264Z,10.43
2023-04-20T17:46:42.176Z,10.23
2023-04-20T17:49:10.476Z,15.82
2023-04-20T17:51:38.776Z,9.52
2023-04-20T17:54:07.843Z,11.40
2023-04-20T17:56:36.357Z,8.95
2023-04-20T17:59:05.541Z,12.45
2023-04-20T18:01:35.933Z,10.55
2023-04-20T18:04:06.392Z,13.90
2023-04-20T18:06:35.075Z,10.27
2023-04-20T18:09:04.951Z,22.05
2023-04-20T18:11:33.478Z,15.23
2023-04-20T18:14:01.788Z,13.38
2023-04-20T18:16:30.121Z,16.73
2023-04-20T18:18:58.512Z,19.92
2023-04-20T18:21:29.681Z,16.95
2023-04-20T18:23:58.062Z,13.48
2023-04-20T18:26:26.320Z,15.30
2023-04-20T18:28:54.739Z,12.77
2023-04-20T18:31:23.130Z,14.57
2023-04-20T18:33:51.486Z,18.33
2023-04-20T18:36:21.829Z,18.58
2023-04-20T18:38:51.666Z,15.18
2023-04-20T18:41:20.008Z,15.90
2023-04-20T18:43:49.684Z,17.90
2023-04-20T18:46:18.035Z,17.60
2023-04-20T18:48:46.452Z,12.70
2023-04-20T18:51:14.782Z,17.35
2023-04-20T18:53:43.183Z,14.40
2023-04-20T18:56:13.131Z,15.57
2023-04-20T18:58:41.644Z,18.00
2023-04-20T19:01:09.984Z,16.17
2023-04-20T19:03:38.479Z,13.70
2023-04-20T19:06:06.958Z,22.48
2023-04-20T19:08:35.498Z,14.43
2023-04-20T19:11:03.749Z,19.25
2023-04-20T19:13:33.360Z,21.10
2023-04-20T19:16:01.768Z,16.08
2023-04-20T19:18:30.173Z,16.85
2023-04-20T19:20:58.432Z,20.10
2023-04-20T19:23:26.760Z,17.60
2023-04-20T19:25:55.176Z,18.92
2023-04-20T19:28:24.316Z,18.50
2023-04-20T19:30:54.095Z,20.60
2023-04-20T19:33:22.404Z,17.58
2023-04-20T19:35:51.575Z,20.45
2023-04-20T19:38:20.252Z,18.75
2023-04-20T19:40:49.688Z,19.38
2023-04-20T19:43:17.982Z,17.80
2023-04-20T19:45:46.377Z,14.80
2023-04-20T19:48:16.377Z,22.83
2023-04-20T19:50:44.782Z,16.70
2023-04-20T19:53:13.176Z,19.75
2023-04-20T19:55:41.487Z,19.00
2023-04-20T19:58:10.941Z,15.70
2023-04-20T20:00:39.305Z,22.23
2023-04-20T20:03:08.526Z,18.90
2023-04-20T20:05:38.603Z,20.83
2023-04-20T20:08:06.867Z,16.70
2023-04-20T20:10:35.457Z,19.70
2023-04-20T20:13:04.013Z,21.85
2023-04-20T20:15:32.485Z,17.50
2023-04-20T20:18:01.072Z,17.63
2023-04-20T20:20:30.501Z,24.45
2023-04-20T20:23:00.851Z,24.17
2023-04-20T20:25:29.330Z,22.45
2023-04-20T20:27:57.682Z,19.48
2023-04-20T20:30:26.094Z,21.30
2023-04-20T20:32:54.516Z,20.27
2023-04-20T20:35:23.870Z,22.40
2023-04-20T20:37:54.485Z,27.13
2023-04-20T20:40:24.468Z,25.98
2023-04-20T20:42:53.019Z,23.30
2023-04-20T20:45:22.003Z,25.65
2023-04-20T20:47:50.540Z,26.15
2023-04-20T20:50:19.712Z,22.48
2023-04-20T20:52:48.130Z,25.23
2023-04-20T20:55:16.470Z,25.58
2023-04-20T20:57:46.828Z,23.48
2023-04-20T21:00:16.307Z,22.13
2023-04-20T21:02:44.852Z,24.58
2023-04-20T21:05:13.495Z,23.85
2023-04-20T21:07:41.736Z,22.45
2023-04-20T21:10:11.978Z,23.98
2023-04-20T21:12:40.500Z,24.20
2023-04-20T21:15:11.832Z,27.70
2023-04-20T21:17:40.479Z,25.15
2023-04-20T21:20:10.099Z,27.38
2023-04-20T21:22:38.645Z,28.95
2023-04-20T21:25:07.834Z,31.00
2023-04-20T21:27:36.076Z,25.00
2023-04-20T21:30:04.522Z,26.10
2023-04-20T21:32:34.244Z,28.20
2023-04-20T21:35:02.757Z,23.48
2023-04-20T21:37:31.108Z,26.95
2023-04-20T21:39:59.448Z,36.95
2023-04-20T21:42:27.843Z,30.88
2023-04-20T21:44:56.179Z,28.30
2023-04-20T21:47:24.411Z,30.15
2023-04-20T21:49:54.202Z,35.75
2023-04-20T21:52:23.998Z,33.05
2023-04-20T21:54:52.316Z,30.50
2023-04-20T21:57:20.709Z,30.58
2023-04-20T21:59:48.942Z,31.50
2023-04-20T22:02:17.205Z,31.08
2023-04-20T22:04:45.877Z,29.20
2023-04-20T22:07:18.101Z,35.95
2023-04-20T22:09:46.289Z,27.75
2023-04-20T22:12:14.539Z,24.77
2023-04-20T22:14:42.758Z,27.60
2023-04-20T22:17:11.950Z,30.17
2023-04-20T22:19:40.296Z,25.55
2023-04-20T22:22:08.565Z,25.08
2023-04-20T22:24:38.314Z,27.73
2023-04-20T22:27:06.571Z,20.00
2023-04-20T22:29:34.922Z,22.83
2023-04-20T22:32:03.196Z,21.15
2023-04-20T22:34:31.705Z,27.52
2023-04-20T22:36:59.971Z,34.13
2023-04-20T22:39:28.252Z,22.65
2023-04-20T22:41:58.217Z,20.83
2023-04-20T22:44:26.403Z,21.98
2023-04-20T22:46:54.728Z,22.25
2023-04-20T22:49:23.234Z,25.17
2023-04-20T22:51:52.590Z,17.13
2023-04-20T22:54:20.824Z,23.13
2023-04-20T22:56:49.122Z,17.73
2023-04-20T22:59:19.793Z,21.88
2023-04-20T23:01:48.238Z,18.33
2023-04-20T23:04:16.779Z,19.95
2023-04-20T23:06:45.196Z,24.60
2023-04-20T23:09:17.162Z,18.40
2023-04-20T23:11:47.245Z,21.60
2023-04-20T23:14:15.674Z,19.75
2023-04-20T23:16:45.758Z,23.23
2023-04-20T23:19:14.027Z,19.38
2023-04-20T23:21:42.477Z,22.00
2023-04-20T23:24:10.922Z,16.60
2023-04-20T23:26:39.161Z,22.45
2023-04-20T23:29:07.649Z,21.65
2023-04-20T23:31:35.962Z,18.48
2023-04-20T23:34:05.695Z,17.92
2023-04-20T23:36:33.893Z,15.98
2023-04-20T23:39:02.129Z,24.67
2023-04-20T23:41:30.491Z,22.85
2023-04-20T23:43:58.767Z,26.88
2023-04-20T23:46:27.169Z,17.10
2023-04-20T23:48:55.641Z,19.75
2023-04-20T23:51:26.106Z,18.60
2023-04-20T23:53:54.413Z,18.77
2023-04-20T23:56:22.708Z,21.35
2023-04-20T23:58:51.108Z,23.88
